createdAt,value
2023-03-21T00:01:03.879Z,16.42
2023-03-21T00:03:35.581Z,13.90
2023-03-21T00:06:09.729Z,14.77
2023-03-21T00:08:40.307Z,16.30
2023-03-21T00:11:14.658Z,14.85
2023-03-21T00:13:45.040Z,16.75
2023-03-21T00:16:30.126Z,16.58
2023-03-21T00:19:06.554Z,14.70
2023-03-21T00:21:49.088Z,14.27
2023-03-21T00:24:25.963Z,11.98
2023-03-21T00:27:15.865Z,13.07
2023-03-21T00:29:49.409Z,14.93
2023-03-21T00:32:19.467Z,16.05
2023-03-21T00:35:01.383Z,12.82
2023-03-21T00:37:39.494Z,15.13
2023-03-21T00:40:23.145Z,16.73
2023-03-21T00:42:58.210Z,14.60
2023-03-21T00:45:28.207Z,11.95
2023-03-21T00:47:58.201Z,13.98
2023-03-21T00:50:28.399Z,13.60
2023-03-21T00:52:58.368Z,14.32
2023-03-21T00:55:28.547Z,15.15
2023-03-21T00:58:02.414Z,15.63
2023-03-21T01:00:33.882Z,13.98
2023-03-21T01:03:17.649Z,15.77
2023-03-21T01:06:07.051Z,14.43
2023-03-21T01:08:54.523Z,14.85
2023-03-21T01:11:27.769Z,15.20
2023-03-21T01:14:18.712Z,16.23
2023-03-21T01:16:51.430Z,16.55
2023-03-21T01:19:37.896Z,15.75
2023-03-21T01:22:15.032Z,17.13
2023-03-21T01:24:53.118Z,16.30
2023-03-21T01:27:25.559Z,16.63
2023-03-21T01:29:58.700Z,15.88
2023-03-21T01:32:29.678Z,16.90
2023-03-21T01:34:59.938Z,16.98
2023-03-21T01:37:29.878Z,19.48
2023-03-21T01:39:59.777Z,17.23
2023-03-21T01:42:29.775Z,20.63
2023-03-21T01:45:07.152Z,17.33
2023-03-21T01:47:37.146Z,19.88
2023-03-21T01:50:08.341Z,21.05
2023-03-21T01:52:41.716Z,19.17
2023-03-21T01:55:16.206Z,17.98
2023-03-21T01:58:04.387Z,19.10
2023-03-21T02:00:38.696Z,21.92
2023-03-21T02:03:26.217Z,20.60
2023-03-21T02:06:06.723Z,18.83
2023-03-21T02:08:39.925Z,18.85
2023-03-21T02:11:12.717Z,17.67
2023-03-21T02:13:43.381Z,18.65
2023-03-21T02:16:24.228Z,22.17
2023-03-21T02:19:03.579Z,19.80
2023-03-21T02:22:13.607Z,21.48
2023-03-21T02:25:23.241Z,17.48
2023-03-21T02:27:58.627Z,19.48
2023-03-21T02:31:10.871Z,21.05
2023-03-21T02:34:41.449Z,19.80
2023-03-21T02:37:36.651Z,20.38
2023-03-21T02:40:15.435Z,19.63
2023-03-21T02:43:01.123Z,22.63
2023-03-21T02:45:36.486Z,19.30
2023-03-21T02:48:23.878Z,23.27
2023-03-21T02:51:00.720Z,22.17
2023-03-21T02:53:39.063Z,23.27
2023-03-21T02:56:13.070Z,26.33
2023-03-21T02:58:45.903Z,24.10
2023-03-21T03:01:16.166Z,26.45
2023-03-21T03:03:47.650Z,28.38
2023-03-21T03:06:23.491Z,27.98
2023-03-21T03:09:15.406Z,33.83
2023-03-21T03:11:47.045Z,33.78
2023-03-21T03:14:49.906Z,38.22
2023-03-21T03:17:41.413Z,35.35
2023-03-21T03:23:01.150Z,37.58
2023-03-21T03:25:43.507Z,38.88
2023-03-21T03:28:15.938Z,38.63
2023-03-21T03:31:01.245Z,41.28
2023-03-21T03:33:41.633Z,40.03
2023-03-21T03:36:30.091Z,40.75
2023-03-21T03:39:04.581Z,40.65
2023-03-21T03:42:05.896Z,43.38
2023-03-21T03:44:34.237Z,44.65
2023-03-21T03:47:09.695Z,42.08
2023-03-21T03:49:46.261Z,44.78
2023-03-21T03:52:22.766Z,46.53
2023-03-21T03:54:54.288Z,42.63
2023-03-21T03:57:29.329Z,46.53
2023-03-21T03:59:59.197Z,47.35
2023-03-21T04:02:30.309Z,45.17
2023-03-21T04:05:01.227Z,47.33
2023-03-21T04:07:31.151Z,46.17
2023-03-21T04:10:01.058Z,46.92
2023-03-21T04:12:33.782Z,43.10
2023-03-21T04:15:10.821Z,43.42
2023-03-21T04:17:42.744Z,45.75
2023-03-21T04:20:23.480Z,46.90
2023-03-21T04:23:00.118Z,45.63
2023-03-21T04:25:34.050Z,44.55
2023-03-21T04:28:07.901Z,41.60
2023-03-21T04:30:38.504Z,44.28
2023-03-21T04:33:08.704Z,49.38
2023-03-21T04:35:39.242Z,47.53
2023-03-21T04:38:09.262Z,48.47
2023-03-21T04:40:39.465Z,53.78
2023-03-21T04:43:12.161Z,48.47
2023-03-21T04:45:42.040Z,47.67
2023-03-21T04:48:14.316Z,48.75
2023-03-21T04:50:44.498Z,45.95
2023-03-21T04:53:14.591Z,50.40
2023-03-21T04:55:45.267Z,45.08
2023-03-21T04:58:18.073Z,49.60
2023-03-21T05:00:48.266Z,52.10
2023-03-21T05:03:19.882Z,53.38
2023-03-21T05:05:50.661Z,48.60
2023-03-21T05:08:20.701Z,53.00
2023-03-21T05:10:50.888Z,47.40
2023-03-21T05:13:23.707Z,49.92
2023-03-21T05:15:53.834Z,52.10
2023-03-21T05:18:25.234Z,56.22
2023-03-21T05:20:57.083Z,51.90
2023-03-21T05:23:31.858Z,59.47
2023-03-21T05:28:36.361Z,53.30
2023-03-21T05:31:07.123Z,53.80
2023-03-21T05:33:37.279Z,62.13
2023-03-21T05:36:08.435Z,52.47
2023-03-21T05:38:38.582Z,52.75
2023-03-21T05:41:09.530Z,58.45
2023-03-21T05:43:42.228Z,53.53
2023-03-21T05:46:13.424Z,56.33
2023-03-21T05:48:43.512Z,51.38
2023-03-21T05:51:13.510Z,52.17
2023-03-21T05:53:43.472Z,52.83
2023-03-21T05:56:13.857Z,54.10
2023-03-21T05:58:46.664Z,53.97
2023-03-21T06:01:17.049Z,52.92
2023-03-21T06:03:47.182Z,56.80
2023-03-21T06:06:17.176Z,52.25
2023-03-21T06:08:48.888Z,46.85
2023-03-21T06:11:27.751Z,56.08
2023-03-21T06:14:00.367Z,64.72
2023-03-21T06:16:31.067Z,54.50
2023-03-21T06:19:01.142Z,48.45
2023-03-21T06:21:31.260Z,52.42
2023-03-21T06:24:01.363Z,49.55
2023-03-21T06:26:31.422Z,51.83
2023-03-21T06:29:04.127Z,55.13
2023-03-21T06:31:34.405Z,51.67
2023-03-21T06:34:04.607Z,51.58
2023-03-21T06:36:34.859Z,52.92
2023-03-21T06:39:05.001Z,52.50
2023-03-21T06:41:35.088Z,50.80
2023-03-21T06:44:08.344Z,48.13
2023-03-21T06:46:38.428Z,52.20
2023-03-21T06:49:08.741Z,50.70
2023-03-21T06:51:38.760Z,51.33
2023-03-21T06:54:08.789Z,49.83
2023-03-21T06:56:38.889Z,46.70
2023-03-21T06:59:11.522Z,49.33
2023-03-21T07:01:42.894Z,53.97
2023-03-21T07:04:13.816Z,47.28
2023-03-21T07:06:43.887Z,52.35
2023-03-21T07:09:13.895Z,51.45
2023-03-21T07:11:44.157Z,48.80
2023-03-21T07:14:16.902Z,47.85
2023-03-21T07:16:47.143Z,48.33
2023-03-21T07:19:17.304Z,46.70
2023-03-21T07:21:47.394Z,50.85
2023-03-21T07:24:17.355Z,51.50
2023-03-21T07:26:47.465Z,49.38
2023-03-21T07:29:21.619Z,50.63
2023-03-21T07:31:52.104Z,50.22
2023-03-21T07:34:22.424Z,53.60
2023-03-21T07:36:52.476Z,51.95
2023-03-21T07:39:23.691Z,50.88
2023-03-21T07:41:55.688Z,51.97
2023-03-21T07:44:29.489Z,51.58
2023-03-21T07:46:59.708Z,55.72
2023-03-21T07:49:29.722Z,50.60
2023-03-21T07:52:00.044Z,47.67
2023-03-21T07:54:30.428Z,52.60
2023-03-21T07:57:00.648Z,55.80
2023-03-21T07:59:33.739Z,54.72
2023-03-21T08:02:03.897Z,52.70
2023-03-21T08:04:38.027Z,57.58
2023-03-21T08:07:08.165Z,56.13
2023-03-21T08:09:39.038Z,54.10
2023-03-21T08:12:10.278Z,52.30
2023-03-21T08:14:42.904Z,55.20
2023-03-21T08:17:13.755Z,55.28
2023-03-21T08:19:43.747Z,53.45
2023-03-21T08:22:13.804Z,58.83
2023-03-21T08:24:43.915Z,55.75
2023-03-21T08:27:14.115Z,52.65
2023-03-21T08:29:47.062Z,54.42
2023-03-21T08:32:17.014Z,52.13
2023-03-21T08:34:46.932Z,60.00
2023-03-21T08:37:16.950Z,58.05
2023-03-21T08:39:47.389Z,53.80
2023-03-21T08:42:17.623Z,61.65
2023-03-21T08:44:50.835Z,57.83
2023-03-21T08:47:20.923Z,61.67
2023-03-21T08:49:51.710Z,62.83
2023-03-21T08:52:22.091Z,63.08
2023-03-21T08:54:52.096Z,54.35
2023-03-21T08:57:22.463Z,56.80
2023-03-21T08:59:55.132Z,55.63
2023-03-21T09:02:25.682Z,54.45
2023-03-21T09:04:59.195Z,56.28
2023-03-21T09:07:29.712Z,56.13
2023-03-21T09:10:19.071Z,53.65
2023-03-21T09:12:51.288Z,53.40
2023-03-21T09:15:25.252Z,57.85
2023-03-21T09:17:57.178Z,50.47
2023-03-21T09:20:31.249Z,49.78
2023-03-21T09:23:02.815Z,55.70
2023-03-21T09:25:33.599Z,52.20
2023-03-21T09:28:05.725Z,49.90
2023-03-21T09:30:40.061Z,46.17
2023-03-21T09:33:19.591Z,47.70
2023-03-21T09:35:52.130Z,44.97
2023-03-21T09:38:23.229Z,48.97
2023-03-21T09:41:08.618Z,45.92
2023-03-21T09:43:50.264Z,52.75
2023-03-21T09:46:31.182Z,41.20
2023-03-21T09:49:06.151Z,47.30
2023-03-21T09:51:43.041Z,51.72
2023-03-21T09:54:21.029Z,44.63
2023-03-21T09:56:57.604Z,45.38
2023-03-21T09:59:38.304Z,46.85
2023-03-21T10:02:32.374Z,45.58
2023-03-21T10:05:06.923Z,43.30
2023-03-21T10:07:44.701Z,43.42
2023-03-21T10:10:22.788Z,40.88
2023-03-21T10:12:56.215Z,42.50
2023-03-21T10:15:28.516Z,43.75
2023-03-21T10:18:05.969Z,37.28
2023-03-21T10:20:38.844Z,40.75
2023-03-21T10:23:15.558Z,42.63
2023-03-21T10:25:49.038Z,41.75
2023-03-21T10:28:22.828Z,41.88
2023-03-21T10:30:56.803Z,40.37
2023-03-21T10:33:32.579Z,39.17
2023-03-21T10:36:06.109Z,37.60
2023-03-21T10:38:37.778Z,42.28
2023-03-21T10:41:08.425Z,41.47
2023-03-21T10:43:41.111Z,35.38
2023-03-21T10:46:15.631Z,35.80
2023-03-21T10:51:25.799Z,38.25
2023-03-21T10:53:59.290Z,36.15
2023-03-21T10:56:32.659Z,34.63
2023-03-21T10:59:04.633Z,33.47
2023-03-21T11:01:40.176Z,36.50
2023-03-21T11:04:19.603Z,34.53
2023-03-21T11:06:55.825Z,40.78
2023-03-21T11:09:28.054Z,38.25
2023-03-21T11:12:06.896Z,35.30
2023-03-21T11:14:42.447Z,39.75
2023-03-21T11:17:28.255Z,38.78
2023-03-21T11:20:05.140Z,35.97
2023-03-21T11:22:45.106Z,35.97
2023-03-21T11:25:26.053Z,39.83
2023-03-21T11:27:58.888Z,36.35
2023-03-21T11:30:30.886Z,34.85
2023-03-21T11:33:04.602Z,32.60
2023-03-21T11:35:41.962Z,32.50
2023-03-21T11:38:29.215Z,34.47
2023-03-21T11:41:02.295Z,34.05
2023-03-21T11:43:34.960Z,35.10
2023-03-21T11:46:11.993Z,38.45
2023-03-21T11:48:44.860Z,38.63
2023-03-21T11:51:29.513Z,35.33
2023-03-21T11:54:10.198Z,36.35
2023-03-21T11:56:46.004Z,35.13
2023-03-21T11:59:36.137Z,35.88
2023-03-21T12:02:42.844Z,35.58
2023-03-21T12:05:21.808Z,35.55
2023-03-21T12:08:06.152Z,32.53
2023-03-21T12:10:45.736Z,32.28
2023-03-21T12:13:40.765Z,37.72
2023-03-21T12:16:32.953Z,35.33
2023-03-21T12:19:19.070Z,35.20
2023-03-21T12:22:00.844Z,35.55
2023-03-21T12:24:39.905Z,32.97
2023-03-21T12:27:21.945Z,35.92
2023-03-21T12:30:02.733Z,33.85
2023-03-21T12:32:54.111Z,31.95
2023-03-21T12:35:35.351Z,35.80
2023-03-21T12:38:19.794Z,33.45
2023-03-21T12:41:28.833Z,33.10
2023-03-21T12:44:05.538Z,29.95
2023-03-21T12:46:42.359Z,34.28
2023-03-21T12:49:18.079Z,37.83
2023-03-21T12:51:53.197Z,34.33
2023-03-21T12:54:31.663Z,37.05
2023-03-21T12:57:11.725Z,31.25
2023-03-21T12:59:47.218Z,37.22
2023-03-21T13:02:27.993Z,36.17
2023-03-21T13:05:07.726Z,34.30
2023-03-21T13:07:42.660Z,37.03
2023-03-21T13:10:21.006Z,24.48
2023-03-21T13:13:07.815Z,31.05
2023-03-21T13:15:58.558Z,26.83
2023-03-21T13:18:50.148Z,30.08
2023-03-21T13:21:28.457Z,21.02
2023-03-21T13:24:03.834Z,24.58
2023-03-21T13:26:42.572Z,28.85
2023-03-21T13:29:29.019Z,27.50
2023-03-21T13:32:11.131Z,27.08
2023-03-21T13:34:44.754Z,24.60
2023-03-21T13:37:21.008Z,22.10
2023-03-21T13:39:53.062Z,30.77
2023-03-21T13:42:33.531Z,27.20
2023-03-21T13:45:13.883Z,25.75
2023-03-21T13:47:54.968Z,30.83
2023-03-21T13:50:54.970Z,22.63
2023-03-21T13:53:35.710Z,24.13
2023-03-21T13:56:27.298Z,26.60
2023-03-21T13:59:03.133Z,28.20
2023-03-21T14:01:40.165Z,21.45
2023-03-21T14:04:24.758Z,30.33
2023-03-21T14:07:02.738Z,25.92
2023-03-21T14:09:36.287Z,26.17
2023-03-21T14:12:11.558Z,22.05
2023-03-21T14:14:45.189Z,23.55
2023-03-21T14:17:25.874Z,24.58
2023-03-21T14:19:57.547Z,21.63
2023-03-21T14:22:27.967Z,22.70
2023-03-21T14:25:02.518Z,22.70
2023-03-21T14:27:37.869Z,23.70
2023-03-21T14:30:13.928Z,31.58
2023-03-21T14:32:47.633Z,25.48
2023-03-21T14:35:18.208Z,25.17
2023-03-21T14:37:51.534Z,25.75
2023-03-21T14:40:27.437Z,20.73
2023-03-21T14:42:59.715Z,25.13
2023-03-21T14:45:32.780Z,23.70
2023-03-21T14:48:11.235Z,22.13
2023-03-21T14:50:47.340Z,22.63
2023-03-21T14:53:23.314Z,20.67
2023-03-21T14:56:01.003Z,19.00
2023-03-21T14:58:32.128Z,23.48
2023-03-21T15:01:07.554Z,21.33
2023-03-21T15:03:40.303Z,19.40
2023-03-21T15:06:16.519Z,17.40
2023-03-21T15:08:59.129Z,20.60
2023-03-21T15:11:34.774Z,22.58
2023-03-21T15:14:08.305Z,21.52
2023-03-21T15:16:39.244Z,23.63
2023-03-21T15:19:19.231Z,14.55
2023-03-21T15:21:52.617Z,22.25
2023-03-21T15:24:28.688Z,19.75
2023-03-21T15:27:03.493Z,18.58
2023-03-21T15:29:34.853Z,21.27
2023-03-21T15:32:08.329Z,17.55
2023-03-21T15:34:40.984Z,17.42
2023-03-21T15:37:18.880Z,15.15
2023-03-21T15:39:49.446Z,17.45
2023-03-21T15:42:33.189Z,22.63
2023-03-21T15:45:13.411Z,17.85
2023-03-21T15:47:46.361Z,19.27
2023-03-21T15:50:30.187Z,18.95
2023-03-21T15:53:03.507Z,17.55
2023-03-21T15:55:38.350Z,20.98
2023-03-21T15:58:16.542Z,21.38
2023-03-21T16:00:55.091Z,20.02
2023-03-21T16:03:29.942Z,18.05
2023-03-21T16:06:20.814Z,19.98
2023-03-21T16:08:53.862Z,20.98
2023-03-21T16:11:29.853Z,20.88
2023-03-21T16:14:00.017Z,20.98
2023-03-21T16:16:32.706Z,20.75
2023-03-21T16:19:07.192Z,22.90
2023-03-21T16:21:41.928Z,21.63
2023-03-21T16:24:13.642Z,20.50
2023-03-21T16:26:50.841Z,22.25
2023-03-21T16:29:22.629Z,19.20
2023-03-21T16:31:52.802Z,20.15
2023-03-21T16:34:23.192Z,19.48
2023-03-21T16:36:55.966Z,25.63
2023-03-21T16:39:28.545Z,20.52
2023-03-21T16:41:58.857Z,22.52
2023-03-21T16:44:29.035Z,25.73
2023-03-21T16:47:01.936Z,25.50
2023-03-21T16:49:32.395Z,22.63
2023-03-21T16:52:06.583Z,26.17
2023-03-21T16:54:36.814Z,24.63
2023-03-21T16:57:08.810Z,21.67
2023-03-21T16:59:40.556Z,22.20
2023-03-21T17:02:17.603Z,21.58
2023-03-21T17:04:47.902Z,20.90
2023-03-21T17:07:21.770Z,23.05
2023-03-21T17:09:51.880Z,28.33
2023-03-21T17:12:21.951Z,25.88
2023-03-21T17:14:51.999Z,29.67
2023-03-21T17:17:22.723Z,23.73
2023-03-21T17:19:52.654Z,28.02
2023-03-21T17:22:25.197Z,27.77
2023-03-21T17:24:55.444Z,26.42
2023-03-21T17:27:25.931Z,28.50
2023-03-21T17:29:58.352Z,27.05
2023-03-21T17:32:28.527Z,30.17
2023-03-21T17:34:58.619Z,25.67
2023-03-21T17:37:31.268Z,25.52
2023-03-21T17:40:01.443Z,29.92
2023-03-21T17:42:31.577Z,25.70
2023-03-21T17:45:01.624Z,27.20
2023-03-21T17:47:32.902Z,31.23
2023-03-21T17:50:03.144Z,24.92
2023-03-21T17:52:37.930Z,23.08
2023-03-21T17:55:08.683Z,28.40
2023-03-21T17:57:39.139Z,29.77
2023-03-21T18:00:15.179Z,29.58
2023-03-21T18:02:45.165Z,27.92
2023-03-21T18:05:15.272Z,33.92
2023-03-21T18:10:38.492Z,28.63
2023-03-21T18:13:08.731Z,28.52
2023-03-21T18:15:44.038Z,29.40
2023-03-21T18:18:15.335Z,27.90
2023-03-21T18:20:52.281Z,29.17
2023-03-21T18:23:25.591Z,27.05
2023-03-21T18:25:55.927Z,31.63
2023-03-21T18:28:26.236Z,30.77
2023-03-21T18:31:17.330Z,29.30
2023-03-21T18:33:48.111Z,29.13
2023-03-21T18:36:25.548Z,30.42
2023-03-21T18:39:02.101Z,32.28
2023-03-21T18:41:32.603Z,29.60
2023-03-21T18:44:14.742Z,30.88
2023-03-21T18:46:51.525Z,35.35
2023-03-21T18:50:02.013Z,37.47
2023-03-21T18:52:12.158Z,33.95
2023-03-21T18:54:44.666Z,32.38
2023-03-21T19:00:09.569Z,29.92
2023-03-21T19:05:18.007Z,34.05
2023-03-21T19:07:48.559Z,34.90
2023-03-21T19:10:24.115Z,33.00
2023-03-21T19:12:58.585Z,34.83
2023-03-21T19:15:28.787Z,28.60
2023-03-21T19:20:49.922Z,31.52
2023-03-21T19:23:21.268Z,34.75
2023-03-21T19:25:53.936Z,30.40
2023-03-21T19:28:24.196Z,33.33
2023-03-21T19:30:55.635Z,35.80
2023-03-21T19:33:26.142Z,40.53
2023-03-21T19:36:11.152Z,37.88
2023-03-21T19:38:46.223Z,36.05
2023-03-21T19:41:19.354Z,37.55
2023-03-21T19:43:55.349Z,35.63
2023-03-21T19:46:27.152Z,29.15
2023-03-21T19:48:57.938Z,32.92
2023-03-21T19:51:30.602Z,29.23
2023-03-21T19:54:01.392Z,32.28
2023-03-21T19:56:34.793Z,32.47
2023-03-21T19:59:06.929Z,37.50
2023-03-21T20:01:37.034Z,34.30
2023-03-21T20:04:07.309Z,32.20
2023-03-21T20:06:38.636Z,35.22
2023-03-21T20:12:02.673Z,30.48
2023-03-21T20:14:32.575Z,33.97
2023-03-21T20:17:02.671Z,34.35
2023-03-21T20:19:32.635Z,30.45
2023-03-21T20:22:13.458Z,32.00
2023-03-21T20:24:50.041Z,33.50
2023-03-21T20:27:25.153Z,31.52
2023-03-21T20:30:10.945Z,35.17
2023-03-21T20:32:41.537Z,36.40
2023-03-21T20:35:25.243Z,44.00
2023-03-21T20:38:09.612Z,38.95
2023-03-21T20:40:40.791Z,32.45
2023-03-21T20:43:54.429Z,34.83
2023-03-21T20:46:04.612Z,38.22
2023-03-21T20:48:35.451Z,35.90
2023-03-21T20:52:00.204Z,33.00
2023-03-21T20:53:58.615Z,32.75
2023-03-21T20:56:30.475Z,35.30
2023-03-21T20:59:16.687Z,30.85
2023-03-21T21:01:47.968Z,32.97
2023-03-21T21:04:20.195Z,30.50
2023-03-21T21:06:50.533Z,29.70
2023-03-21T21:09:20.914Z,31.25
2023-03-21T21:12:07.910Z,30.33
2023-03-21T21:14:41.430Z,30.48
2023-03-21T21:17:27.755Z,27.67
2023-03-21T21:20:01.683Z,31.95
2023-03-21T21:22:32.532Z,26.63
2023-03-21T21:25:02.464Z,31.23
2023-03-21T21:27:32.313Z,27.20
2023-03-21T21:30:05.067Z,30.05
2023-03-21T21:32:35.075Z,29.00
2023-03-21T21:35:04.987Z,26.60
2023-03-21T21:37:35.690Z,29.25
2023-03-21T21:40:13.757Z,30.52
2023-03-21T21:42:45.651Z,31.13
2023-03-21T21:45:19.030Z,30.17
2023-03-21T21:47:49.257Z,33.10
2023-03-21T21:50:22.029Z,30.77
2023-03-21T21:52:54.378Z,35.75
2023-03-21T21:55:25.286Z,32.55
2023-03-21T21:57:58.097Z,32.00
2023-03-21T22:00:33.573Z,31.17
2023-03-21T22:03:04.240Z,34.22
2023-03-21T22:05:34.530Z,34.63
2023-03-21T22:08:05.185Z,31.60
2023-03-21T22:10:36.066Z,29.83
2023-03-21T22:13:06.018Z,40.17
2023-03-21T22:15:38.497Z,35.00
2023-03-21T22:18:08.749Z,35.05
2023-03-21T22:20:38.833Z,32.95
2023-03-21T22:23:08.849Z,32.10
2023-03-21T22:25:39.368Z,32.35
2023-03-21T22:28:09.252Z,33.13
2023-03-21T22:30:41.985Z,38.28
2023-03-21T22:33:11.944Z,33.15
2023-03-21T22:35:42.078Z,34.90
2023-03-21T22:38:12.428Z,30.42
2023-03-21T22:40:42.654Z,38.17
2023-03-21T22:43:12.629Z,34.38
2023-03-21T22:45:45.345Z,34.78
2023-03-21T22:48:15.642Z,34.60
2023-03-21T22:50:45.784Z,40.20
2023-03-21T22:53:15.915Z,32.95
2023-03-21T22:55:45.999Z,34.20
2023-03-21T22:58:15.896Z,35.58
2023-03-21T23:00:48.491Z,35.28
2023-03-21T23:03:19.175Z,32.65
2023-03-21T23:05:49.199Z,34.33
2023-03-21T23:08:19.050Z,36.63
2023-03-21T23:10:48.939Z,36.83
2023-03-21T23:13:18.841Z,37.33
2023-03-21T23:15:51.488Z,32.83
2023-03-21T23:18:21.542Z,35.33
2023-03-21T23:20:53.634Z,41.47
2023-03-21T23:23:24.911Z,32.53
2023-03-21T23:25:55.680Z,33.22
2023-03-21T23:28:25.911Z,35.95
2023-03-21T23:30:58.602Z,38.97
2023-03-21T23:33:28.505Z,33.35
2023-03-21T23:35:58.507Z,37.15
2023-03-21T23:38:28.364Z,38.13
2023-03-21T23:41:00.181Z,35.40
2023-03-21T23:43:30.650Z,31.83
2023-03-21T23:46:03.181Z,34.70
2023-03-21T23:48:33.381Z,33.67
2023-03-21T23:51:03.731Z,35.03
2023-03-21T23:53:33.635Z,35.78
2023-03-21T23:56:03.575Z,35.55
2023-03-21T23:58:33.460Z,35.17
